createdAt,value
2019-05-26T00:00:25.914Z,5.85
2019-05-26T00:01:02.011Z,6.10
2019-05-26T00:01:37.055Z,6.42
2019-05-26T00:02:12.715Z,6.47
2019-05-26T00:02:48.962Z,6.12
2019-05-26T00:03:24.256Z,6.20
2019-05-26T00:03:59.866Z,6.83
2019-05-26T00:04:36.559Z,6.33
2019-05-26T00:05:11.635Z,6.42
2019-05-26T00:05:47.530Z,5.97
2019-05-26T00:06:23.138Z,6.55
2019-05-26T00:06:58.205Z,6.25
2019-05-26T00:07:33.819Z,6.90
2019-05-26T00:08:09.759Z,7.05
2019-05-26T00:08:45.116Z,6.20
2019-05-26T00:09:20.756Z,6.58
2019-05-26T00:09:56.433Z,5.67
2019-05-26T00:10:31.486Z,6.22
2019-05-26T00:11:07.115Z,6.40
2019-05-26T00:11:42.719Z,7.00
2019-05-26T00:12:17.763Z,6.25
2019-05-26T00:12:53.437Z,6.33
2019-05-26T00:13:29.622Z,6.53
2019-05-26T00:14:04.754Z,6.62
2019-05-26T00:14:40.421Z,6.20
2019-05-26T00:15:16.028Z,6.90
2019-05-26T00:15:52.396Z,6.58
2019-05-26T00:16:28.015Z,6.20
2019-05-26T00:17:04.955Z,6.53
2019-05-26T00:17:40.040Z,6.08
2019-05-26T00:18:16.181Z,6.70
2019-05-26T00:18:52.106Z,6.15
2019-05-26T00:19:27.182Z,6.33
2019-05-26T00:20:02.867Z,6.47
2019-05-26T00:20:38.494Z,7.90
2019-05-26T00:21:13.525Z,6.47
2019-05-26T00:21:49.177Z,6.47
2019-05-26T00:22:24.870Z,6.10
2019-05-26T00:22:59.901Z,5.95
2019-05-26T00:23:35.616Z,6.10
2019-05-26T00:24:11.398Z,6.60
2019-05-26T00:24:46.439Z,6.60
2019-05-26T00:25:22.065Z,6.42
2019-05-26T00:25:57.754Z,6.10
2019-05-26T00:26:32.878Z,6.22
2019-05-26T00:27:08.643Z,6.40
2019-05-26T00:27:44.617Z,5.80
2019-05-26T00:28:19.730Z,6.03
2019-05-26T00:28:55.351Z,6.25
2019-05-26T00:29:31.327Z,6.05
2019-05-26T00:30:06.454Z,5.87
2019-05-26T00:30:42.073Z,6.10
2019-05-26T00:31:17.790Z,6.08
2019-05-26T00:31:52.845Z,6.15
2019-05-26T00:32:28.579Z,6.50
2019-05-26T00:33:04.834Z,6.50
2019-05-26T00:33:39.879Z,6.80
2019-05-26T00:34:15.501Z,6.92
2019-05-26T00:34:51.110Z,6.05
2019-05-26T00:35:26.223Z,6.20
2019-05-26T00:36:01.971Z,6.15
2019-05-26T00:36:37.582Z,6.20
2019-05-26T00:37:12.934Z,5.55
2019-05-26T00:37:50.528Z,5.80
2019-05-26T00:38:26.590Z,6.70
2019-05-26T00:39:01.887Z,6.37
2019-05-26T00:39:38.167Z,6.53
2019-05-26T00:40:13.790Z,6.10
2019-05-26T00:40:48.822Z,6.20
2019-05-26T00:41:24.481Z,6.40
2019-05-26T00:42:00.108Z,6.30
2019-05-26T00:42:35.146Z,6.95
2019-05-26T00:43:10.764Z,7.35
2019-05-26T00:43:46.367Z,6.00
2019-05-26T00:44:21.407Z,6.03
2019-05-26T00:44:57.412Z,5.97
2019-05-26T00:45:33.131Z,6.05
2019-05-26T00:46:08.187Z,5.95
2019-05-26T00:46:43.885Z,5.97
2019-05-26T00:47:19.579Z,11.70
2019-05-26T00:47:55.083Z,6.03
2019-05-26T00:48:30.968Z,6.28
2019-05-26T00:49:06.644Z,6.08
2019-05-26T00:49:41.700Z,5.65
2019-05-26T00:50:17.315Z,5.97
2019-05-26T00:50:52.911Z,5.95
2019-05-26T00:51:27.986Z,5.95
2019-05-26T00:52:03.712Z,5.97
2019-05-26T00:52:39.360Z,6.08
2019-05-26T00:53:14.718Z,5.97
2019-05-26T00:53:51.283Z,6.35
2019-05-26T00:54:26.894Z,5.83
2019-05-26T00:55:02.045Z,5.62
2019-05-26T00:55:38.295Z,5.78
2019-05-26T00:56:13.891Z,5.45
2019-05-26T00:56:49.266Z,5.40
2019-05-26T00:57:24.918Z,6.05
2019-05-26T00:58:00.946Z,6.20
2019-05-26T00:58:35.982Z,6.10
2019-05-26T00:59:11.678Z,5.33
2019-05-26T00:59:47.580Z,5.95
2019-05-26T01:00:38.335Z,6.15
2019-05-26T01:01:14.027Z,5.60
2019-05-26T01:01:49.659Z,5.30
2019-05-26T01:02:25.227Z,6.20
2019-05-26T01:03:00.899Z,6.58
2019-05-26T01:03:36.566Z,6.83
2019-05-26T01:04:12.052Z,6.50
2019-05-26T01:04:48.006Z,6.78
2019-05-26T01:05:25.283Z,6.87
2019-05-26T01:06:00.337Z,5.70
2019-05-26T01:06:36.178Z,6.28
2019-05-26T01:07:11.791Z,6.17
2019-05-26T01:07:46.842Z,5.83
2019-05-26T01:08:22.479Z,6.10
2019-05-26T01:08:58.092Z,6.75
2019-05-26T01:09:33.169Z,6.30
2019-05-26T01:10:09.001Z,5.87
2019-05-26T01:10:44.921Z,5.80
2019-05-26T01:11:20.043Z,5.72
2019-05-26T01:11:55.706Z,7.00
2019-05-26T01:12:31.328Z,6.45
2019-05-26T01:13:06.462Z,5.90
2019-05-26T01:13:42.078Z,5.80
2019-05-26T01:14:17.782Z,5.72
2019-05-26T01:14:52.817Z,6.28
2019-05-26T01:15:28.518Z,5.60
2019-05-26T01:16:04.255Z,5.45
2019-05-26T01:16:39.327Z,5.62
2019-05-26T01:17:16.023Z,5.60
2019-05-26T01:17:51.638Z,5.80
2019-05-26T01:18:26.707Z,5.87
2019-05-26T01:19:02.341Z,5.45
2019-05-26T01:19:39.607Z,6.28
2019-05-26T01:20:14.666Z,6.45
2019-05-26T01:20:50.275Z,5.65
2019-05-26T01:21:26.269Z,5.12
2019-05-26T01:22:01.351Z,5.42
2019-05-26T01:22:37.983Z,5.45
2019-05-26T01:23:14.214Z,5.53
2019-05-26T01:23:49.282Z,5.72
2019-05-26T01:24:24.891Z,5.95
2019-05-26T01:25:00.539Z,5.53
2019-05-26T01:25:35.955Z,5.28
2019-05-26T01:26:11.585Z,5.53
2019-05-26T01:26:47.186Z,5.33
2019-05-26T01:27:22.240Z,5.42
2019-05-26T01:27:58.872Z,5.37
2019-05-26T01:28:34.535Z,6.05
2019-05-26T01:29:09.567Z,5.70
2019-05-26T01:29:45.200Z,5.97
2019-05-26T01:30:22.579Z,5.45
2019-05-26T01:30:57.621Z,5.40
2019-05-26T01:31:33.236Z,5.22
2019-05-26T01:32:09.176Z,5.33
2019-05-26T01:32:44.215Z,5.10
2019-05-26T01:33:19.834Z,5.22
2019-05-26T01:33:55.742Z,5.30
2019-05-26T01:34:31.312Z,5.40
2019-05-26T01:35:07.931Z,5.10
2019-05-26T01:35:43.867Z,5.62
2019-05-26T01:36:18.898Z,6.17
2019-05-26T01:36:54.815Z,5.55
2019-05-26T01:37:30.470Z,5.50
2019-05-26T01:38:20.612Z,5.37
2019-05-26T01:38:42.891Z,5.53
2019-05-26T01:39:19.582Z,5.58
2019-05-26T01:39:54.961Z,5.28
2019-05-26T01:40:37.842Z,5.45
2019-05-26T01:41:14.430Z,5.40
2019-05-26T01:41:49.739Z,5.03
2019-05-26T01:42:25.395Z,5.40
2019-05-26T01:43:01.302Z,5.20
2019-05-26T01:43:36.344Z,6.92
2019-05-26T01:44:12.119Z,5.60
2019-05-26T01:44:48.008Z,5.53
2019-05-26T01:45:23.083Z,5.37
2019-05-26T01:45:58.798Z,7.20
2019-05-26T01:46:34.660Z,5.17
2019-05-26T01:47:09.695Z,5.25
2019-05-26T01:47:45.321Z,5.65
2019-05-26T01:48:21.271Z,5.37
2019-05-26T01:48:56.314Z,5.03
2019-05-26T01:49:31.932Z,5.17
2019-05-26T01:50:07.783Z,5.45
2019-05-26T01:50:43.095Z,4.78
2019-05-26T01:51:19.063Z,5.30
2019-05-26T01:51:54.666Z,4.80
2019-05-26T01:52:30.089Z,5.17
2019-05-26T01:53:07.516Z,5.47
2019-05-26T01:53:44.086Z,5.83
2019-05-26T01:54:19.477Z,5.30
2019-05-26T01:54:55.403Z,5.92
2019-05-26T01:55:31.007Z,5.33
2019-05-26T01:56:06.082Z,5.22
2019-05-26T01:56:41.982Z,5.33
2019-05-26T01:57:17.590Z,5.83
2019-05-26T01:57:52.643Z,5.70
2019-05-26T01:58:28.246Z,5.55
2019-05-26T01:59:04.033Z,6.90
2019-05-26T01:59:39.058Z,6.70
2019-05-26T02:00:14.681Z,6.33
2019-05-26T02:00:50.303Z,8.20
2019-05-26T02:01:25.335Z,6.80
2019-05-26T02:02:00.960Z,7.25
2019-05-26T02:02:36.586Z,9.58
2019-05-26T02:03:11.914Z,7.65
2019-05-26T02:03:47.530Z,8.35
2019-05-26T02:04:23.207Z,7.72
2019-05-26T02:04:58.247Z,7.70
2019-05-26T02:05:33.875Z,7.65
2019-05-26T02:06:09.491Z,7.87
2019-05-26T02:06:44.521Z,7.95
2019-05-26T02:07:20.136Z,8.15
2019-05-26T02:07:56.088Z,8.08
2019-05-26T02:08:39.297Z,8.38
2019-05-26T02:09:08.923Z,8.68
2019-05-26T02:09:44.884Z,8.05
2019-05-26T02:10:20.603Z,8.45
2019-05-26T02:10:56.227Z,8.65
2019-05-26T02:11:32.148Z,8.50
2019-05-26T02:12:07.738Z,9.35
2019-05-26T02:12:43.378Z,8.98
2019-05-26T02:13:18.990Z,9.08
2019-05-26T02:13:54.026Z,9.80
2019-05-26T02:14:29.668Z,9.95
2019-05-26T02:15:05.391Z,11.00
2019-05-26T02:15:40.709Z,9.55
2019-05-26T02:16:16.351Z,9.48
2019-05-26T02:16:51.970Z,9.90
2019-05-26T02:17:27.013Z,9.48
2019-05-26T02:18:02.810Z,9.05
2019-05-26T02:18:38.427Z,9.73
2019-05-26T02:19:13.462Z,9.45
2019-05-26T02:19:49.082Z,9.90
2019-05-26T02:20:24.698Z,10.00
2019-05-26T02:20:59.738Z,8.70
2019-05-26T02:21:35.361Z,10.72
2019-05-26T02:22:10.985Z,10.00
2019-05-26T02:22:46.034Z,11.00
2019-05-26T02:23:21.651Z,10.50
2019-05-26T02:23:57.279Z,10.43
2019-05-26T02:24:32.598Z,10.78
2019-05-26T02:25:08.310Z,10.08
2019-05-26T02:25:43.939Z,9.60
2019-05-26T02:26:18.980Z,9.90
2019-05-26T02:26:54.590Z,10.70
2019-05-26T02:27:30.541Z,10.38
2019-05-26T02:28:05.831Z,10.75
2019-05-26T02:28:41.452Z,10.08
2019-05-26T02:29:17.416Z,10.48
2019-05-26T02:29:52.451Z,11.43
2019-05-26T02:30:28.364Z,9.85
2019-05-26T02:31:05.015Z,10.68
2019-05-26T02:31:40.047Z,11.08
2019-05-26T02:32:16.020Z,11.53
2019-05-26T02:32:51.954Z,11.15
2019-05-26T02:33:27.065Z,11.60
2019-05-26T02:34:02.868Z,11.12
2019-05-26T02:34:38.508Z,11.65
2019-05-26T02:35:13.727Z,11.33
2019-05-26T02:35:49.367Z,11.43
2019-05-26T02:36:25.255Z,11.35
2019-05-26T02:37:00.619Z,12.43
2019-05-26T02:37:36.718Z,11.75
2019-05-26T02:38:12.771Z,12.35
2019-05-26T02:39:00.984Z,12.33
2019-05-26T02:39:25.144Z,11.05
2019-05-26T02:40:01.281Z,11.33
2019-05-26T02:40:36.372Z,11.70
2019-05-26T02:41:12.239Z,11.80
2019-05-26T02:41:47.871Z,12.63
2019-05-26T02:42:22.897Z,12.28
2019-05-26T02:42:58.876Z,12.70
2019-05-26T02:43:34.505Z,12.60
2019-05-26T02:44:09.697Z,12.15
2019-05-26T02:44:45.315Z,11.97
2019-05-26T02:45:21.363Z,11.75
2019-05-26T02:45:56.460Z,13.50
2019-05-26T02:46:32.091Z,12.37
2019-05-26T02:47:07.711Z,12.53
2019-05-26T02:47:43.090Z,12.33
2019-05-26T02:48:18.994Z,13.78
2019-05-26T02:48:54.640Z,13.80
2019-05-26T02:49:30.374Z,12.78
2019-05-26T02:50:06.362Z,13.25
2019-05-26T02:50:41.967Z,13.15
2019-05-26T02:51:17.007Z,13.55
2019-05-26T02:51:52.635Z,13.68
2019-05-26T02:52:28.243Z,13.00
2019-05-26T02:53:03.920Z,12.45
2019-05-26T02:53:40.132Z,13.35
2019-05-26T02:54:15.998Z,12.60
2019-05-26T02:54:51.279Z,13.40
2019-05-26T02:55:27.096Z,14.03
2019-05-26T02:56:02.962Z,13.95
2019-05-26T02:56:37.998Z,14.73
2019-05-26T02:57:13.614Z,14.63
2019-05-26T02:57:49.574Z,15.05
2019-05-26T02:58:24.616Z,14.13
2019-05-26T02:59:00.732Z,13.78
2019-05-26T02:59:36.496Z,15.00
2019-05-26T03:00:11.694Z,14.70
2019-05-26T03:00:47.599Z,14.38
2019-05-26T03:01:24.016Z,17.02
2019-05-26T03:02:03.964Z,16.25
2019-05-26T03:02:36.486Z,15.38
2019-05-26T03:03:12.989Z,15.53
2019-05-26T03:03:49.075Z,16.35
2019-05-26T03:04:25.037Z,15.50
2019-05-26T03:05:00.671Z,16.17
2019-05-26T03:05:36.032Z,15.83
2019-05-26T03:06:11.736Z,16.02
2019-05-26T03:06:47.545Z,16.02
2019-05-26T03:07:22.744Z,15.90
2019-05-26T03:07:58.388Z,16.42
2019-05-26T03:08:34.372Z,16.45
2019-05-26T03:09:21.693Z,17.20
2019-05-26T03:09:47.036Z,17.52
2019-05-26T03:10:22.908Z,16.85
2019-05-26T03:10:58.650Z,16.23
2019-05-26T03:11:34.272Z,17.02
2019-05-26T03:12:10.856Z,16.25
2019-05-26T03:12:46.278Z,16.77
2019-05-26T03:13:21.967Z,17.25
2019-05-26T03:13:59.533Z,17.37
2019-05-26T03:14:35.159Z,16.40
2019-05-26T03:15:10.829Z,16.55
2019-05-26T03:15:46.768Z,16.45
2019-05-26T03:16:23.201Z,16.73
2019-05-26T03:16:58.992Z,16.52
2019-05-26T03:17:35.147Z,16.65
2019-05-26T03:18:10.188Z,16.97
2019-05-26T03:18:46.098Z,16.57
2019-05-26T03:19:21.727Z,16.93
2019-05-26T03:19:56.776Z,17.32
2019-05-26T03:20:32.411Z,16.77
2019-05-26T03:21:08.071Z,16.52
2019-05-26T03:21:43.127Z,16.12
2019-05-26T03:22:19.996Z,16.70
2019-05-26T03:22:55.629Z,16.87
2019-05-26T03:23:32.047Z,16.17
2019-05-26T03:24:07.702Z,16.67
2019-05-26T03:24:43.549Z,16.95
2019-05-26T03:25:18.598Z,17.42
2019-05-26T03:25:54.276Z,17.32
2019-05-26T03:26:30.840Z,17.02
2019-05-26T03:27:06.952Z,17.77
2019-05-26T03:27:42.573Z,18.23
2019-05-26T03:28:18.316Z,17.20
2019-05-26T03:28:53.619Z,17.65
2019-05-26T03:29:29.275Z,18.00
2019-05-26T03:30:05.526Z,18.37
2019-05-26T03:30:40.671Z,17.40
2019-05-26T03:31:16.751Z,17.50
2019-05-26T03:31:52.415Z,16.97
2019-05-26T03:32:27.894Z,17.70
2019-05-26T03:33:03.648Z,18.65
2019-05-26T03:33:39.516Z,18.30
2019-05-26T03:34:14.584Z,18.35
2019-05-26T03:34:50.224Z,18.45
2019-05-26T03:35:25.929Z,19.37
2019-05-26T03:36:00.967Z,18.20
2019-05-26T03:36:36.599Z,19.92
2019-05-26T03:37:12.227Z,19.50
2019-05-26T03:37:47.278Z,18.25
2019-05-26T03:38:23.310Z,18.57
2019-05-26T03:38:58.962Z,18.67
2019-05-26T03:39:44.565Z,18.80
2019-05-26T03:40:11.405Z,20.32
2019-05-26T03:40:47.307Z,19.45
2019-05-26T03:41:22.737Z,18.98
2019-05-26T03:41:58.372Z,18.62
2019-05-26T03:42:33.987Z,19.42
2019-05-26T03:43:09.411Z,19.02
2019-05-26T03:43:45.037Z,18.45
2019-05-26T03:44:20.734Z,20.27
2019-05-26T03:44:55.786Z,20.75
2019-05-26T03:46:06.462Z,19.30
2019-05-26T03:46:41.526Z,20.08
2019-05-26T03:47:17.437Z,19.55
2019-05-26T03:47:53.095Z,19.12
2019-05-26T03:48:28.139Z,18.92
2019-05-26T03:49:04.038Z,20.70
2019-05-26T03:49:39.727Z,20.35
2019-05-26T03:50:15.955Z,19.50
2019-05-26T03:50:51.903Z,21.23
2019-05-26T03:51:27.533Z,19.85
2019-05-26T03:52:02.962Z,19.57
2019-05-26T03:52:38.862Z,21.23
2019-05-26T03:53:14.584Z,19.75
2019-05-26T03:53:49.705Z,19.32
2019-05-26T03:54:25.351Z,21.87
2019-05-26T03:55:01.111Z,21.50
2019-05-26T03:55:36.216Z,19.77
2019-05-26T03:56:12.133Z,18.70
2019-05-26T03:56:47.933Z,20.88
2019-05-26T03:57:22.979Z,19.45
2019-05-26T03:57:58.610Z,20.27
2019-05-26T03:58:34.859Z,20.32
2019-05-26T03:59:10.009Z,20.35
2019-05-26T03:59:45.655Z,20.20
2019-05-26T04:00:21.330Z,19.20
2019-05-26T04:00:56.396Z,19.73
2019-05-26T04:01:32.160Z,19.75
2019-05-26T04:02:07.804Z,21.55
2019-05-26T04:02:43.142Z,20.48
2019-05-26T04:03:18.784Z,19.62
2019-05-26T04:04:04.186Z,22.32
2019-05-26T04:04:39.218Z,21.90
2019-05-26T04:05:14.935Z,21.33
2019-05-26T04:05:50.567Z,22.93
2019-05-26T04:06:25.627Z,20.92
2019-05-26T04:07:01.270Z,20.05
2019-05-26T04:07:37.162Z,22.70
2019-05-26T04:08:12.211Z,22.10
2019-05-26T04:08:48.085Z,20.88
2019-05-26T04:09:23.724Z,20.52
2019-05-26T04:10:05.637Z,20.95
2019-05-26T04:10:36.507Z,22.25
2019-05-26T04:11:12.147Z,22.58
2019-05-26T04:11:47.420Z,22.48
2019-05-26T04:12:23.295Z,21.65
2019-05-26T04:12:58.921Z,22.15
2019-05-26T04:13:33.969Z,20.50
2019-05-26T04:14:09.626Z,21.33
2019-05-26T04:14:45.244Z,21.93
2019-05-26T04:15:20.307Z,21.60
2019-05-26T04:15:56.272Z,20.90
2019-05-26T04:16:31.907Z,22.10
2019-05-26T04:17:07.090Z,22.77
2019-05-26T04:17:42.713Z,22.67
2019-05-26T04:18:18.411Z,21.93
2019-05-26T04:18:53.499Z,22.82
2019-05-26T04:19:29.135Z,21.48
2019-05-26T04:20:04.936Z,23.98
2019-05-26T04:20:40.215Z,22.40
2019-05-26T04:21:16.928Z,23.00
2019-05-26T04:21:52.882Z,22.35
2019-05-26T04:22:27.923Z,22.35
2019-05-26T04:23:03.924Z,23.18
2019-05-26T04:23:39.561Z,23.18
2019-05-26T04:24:14.599Z,23.62
2019-05-26T04:24:50.243Z,24.80
2019-05-26T04:25:25.876Z,23.07
2019-05-26T04:26:00.999Z,25.95
2019-05-26T04:26:36.652Z,23.57
2019-05-26T04:27:12.808Z,23.75
2019-05-26T04:27:47.873Z,23.85
2019-05-26T04:28:23.494Z,24.37
2019-05-26T04:28:59.144Z,25.17
2019-05-26T04:29:34.171Z,24.47
2019-05-26T04:30:09.793Z,24.12
2019-05-26T04:30:45.426Z,23.45
2019-05-26T04:31:20.463Z,24.10
2019-05-26T04:31:56.088Z,24.27
2019-05-26T04:32:31.717Z,26.00
2019-05-26T04:33:06.752Z,26.17
2019-05-26T04:33:42.422Z,26.68
2019-05-26T04:34:18.110Z,25.15
2019-05-26T04:34:53.147Z,25.17
2019-05-26T04:35:28.791Z,26.87
2019-05-26T04:36:04.772Z,25.75
2019-05-26T04:36:39.810Z,26.17
2019-05-26T04:37:15.439Z,26.55
2019-05-26T04:37:51.063Z,25.80
2019-05-26T04:38:26.099Z,25.90
2019-05-26T04:39:02.034Z,26.37
2019-05-26T04:39:38.925Z,27.00
2019-05-26T04:40:26.510Z,26.40
2019-05-26T04:40:51.612Z,27.93
2019-05-26T04:41:27.232Z,28.25
2019-05-26T04:42:02.341Z,28.60
2019-05-26T04:42:37.962Z,27.77
2019-05-26T04:43:15.133Z,26.30
2019-05-26T04:43:50.628Z,26.50
2019-05-26T04:44:26.249Z,28.05
2019-05-26T04:45:02.170Z,27.85
2019-05-26T04:45:37.291Z,28.55
2019-05-26T04:46:12.940Z,27.37
2019-05-26T04:46:48.538Z,29.77
2019-05-26T04:47:23.692Z,28.17
2019-05-26T04:47:59.350Z,26.95
2019-05-26T04:48:34.971Z,27.93
2019-05-26T04:49:10.007Z,28.27
2019-05-26T04:49:45.645Z,27.70
2019-05-26T04:50:22.362Z,27.30
2019-05-26T04:50:57.395Z,28.75
2019-05-26T04:51:33.370Z,26.42
2019-05-26T04:52:09.053Z,28.55
2019-05-26T04:53:04.091Z,27.65
2019-05-26T04:53:21.420Z,29.12
2019-05-26T04:53:57.677Z,27.98
2019-05-26T04:54:32.961Z,27.95
2019-05-26T04:55:08.587Z,27.75
2019-05-26T04:55:44.444Z,27.73
2019-05-26T04:56:19.476Z,29.42
2019-05-26T04:56:55.119Z,28.60
2019-05-26T04:57:30.765Z,27.98
2019-05-26T04:58:05.802Z,28.95
2019-05-26T04:58:41.436Z,30.02
2019-05-26T04:59:17.482Z,29.42
2019-05-26T04:59:52.592Z,29.90
2019-05-26T05:00:28.270Z,30.00
2019-05-26T05:01:04.095Z,30.57
2019-05-26T05:01:39.413Z,29.27
2019-05-26T05:02:15.074Z,29.67
2019-05-26T05:02:50.721Z,28.85
2019-05-26T05:03:25.756Z,30.68
2019-05-26T05:04:01.386Z,29.70
2019-05-26T05:04:37.090Z,28.52
2019-05-26T05:05:12.412Z,30.43
2019-05-26T05:05:48.304Z,31.73
2019-05-26T05:06:24.011Z,30.90
2019-05-26T05:06:59.439Z,30.62
2019-05-26T05:07:35.063Z,31.15
2019-05-26T05:08:10.679Z,31.50
2019-05-26T05:08:46.019Z,31.42
2019-05-26T05:09:21.917Z,32.50
2019-05-26T05:09:57.555Z,31.52
2019-05-26T05:10:41.934Z,29.20
2019-05-26T05:11:10.199Z,31.87
2019-05-26T05:11:46.113Z,31.42
2019-05-26T05:12:21.147Z,31.65
2019-05-26T05:12:56.838Z,31.55
2019-05-26T05:13:32.459Z,33.00
2019-05-26T05:14:07.583Z,32.83
2019-05-26T05:14:43.207Z,33.42
2019-05-26T05:15:18.847Z,34.25
2019-05-26T05:15:54.154Z,33.60
2019-05-26T05:16:29.791Z,33.53
2019-05-26T05:17:05.433Z,34.05
2019-05-26T05:17:40.758Z,32.80
2019-05-26T05:18:16.373Z,34.13
2019-05-26T05:18:51.998Z,35.50
2019-05-26T05:19:27.035Z,33.53
2019-05-26T05:20:02.695Z,32.45
2019-05-26T05:20:38.383Z,32.98
2019-05-26T05:21:13.418Z,34.08
2019-05-26T05:21:49.375Z,35.23
2019-05-26T05:22:25.076Z,34.18
2019-05-26T05:23:00.121Z,35.48
2019-05-26T05:23:35.777Z,35.63
2019-05-26T05:24:11.466Z,35.50
2019-05-26T05:24:46.871Z,36.53
2019-05-26T05:25:22.515Z,37.85
2019-05-26T05:25:59.414Z,36.90
2019-05-26T05:26:34.455Z,34.98
2019-05-26T05:27:10.328Z,33.33
2019-05-26T05:27:46.384Z,36.40
2019-05-26T05:28:22.115Z,35.63
2019-05-26T05:28:57.775Z,36.03
2019-05-26T05:29:33.650Z,37.53
2019-05-26T05:30:09.007Z,38.28
2019-05-26T05:30:44.956Z,36.95
2019-05-26T05:31:21.275Z,38.40
2019-05-26T05:31:56.648Z,36.73
2019-05-26T05:32:33.735Z,37.20
2019-05-26T05:33:12.321Z,37.28
2019-05-26T05:33:47.371Z,36.95
2019-05-26T05:34:23.232Z,36.15
2019-05-26T05:34:58.854Z,36.68
2019-05-26T05:35:33.943Z,37.23
2019-05-26T05:36:09.839Z,36.75
2019-05-26T05:36:45.468Z,37.55
2019-05-26T05:37:20.782Z,38.70
2019-05-26T05:37:56.391Z,40.15
2019-05-26T05:38:32.004Z,38.25
2019-05-26T05:39:08.202Z,40.55
2019-05-26T05:39:44.163Z,39.58
2019-05-26T05:40:20.460Z,41.10
2019-05-26T05:40:59.915Z,40.60
2019-05-26T05:41:33.430Z,40.00
2019-05-26T05:42:09.064Z,39.45
2019-05-26T05:42:44.586Z,40.80
2019-05-26T05:43:21.386Z,42.73
2019-05-26T05:43:57.651Z,40.88
2019-05-26T05:44:32.693Z,41.95
2019-05-26T05:45:08.449Z,41.60
2019-05-26T05:45:44.679Z,40.83
2019-05-26T05:46:20.639Z,41.68
2019-05-26T05:46:56.282Z,41.80
2019-05-26T05:47:31.920Z,42.50
2019-05-26T05:48:07.053Z,41.48
2019-05-26T05:48:42.771Z,42.60
2019-05-26T05:49:18.414Z,40.23
2019-05-26T05:49:53.467Z,41.40
2019-05-26T05:50:29.087Z,41.77
2019-05-26T05:51:04.966Z,42.23
2019-05-26T05:51:40.071Z,44.27
2019-05-26T05:52:15.696Z,42.25
2019-05-26T05:52:51.328Z,41.55
2019-05-26T05:53:26.505Z,42.73
2019-05-26T05:54:02.463Z,41.75
2019-05-26T05:54:38.133Z,42.93
2019-05-26T05:55:13.220Z,42.93
2019-05-26T05:55:48.859Z,43.33
2019-05-26T05:56:24.479Z,43.30
2019-05-26T05:56:59.520Z,42.50
2019-05-26T05:57:35.147Z,42.08
2019-05-26T05:58:10.783Z,42.98
2019-05-26T05:58:45.898Z,43.45
2019-05-26T05:59:21.527Z,42.15
2019-05-26T05:59:57.140Z,41.23
2019-05-26T06:00:32.172Z,42.05
2019-05-26T06:01:07.786Z,42.88
2019-05-26T06:01:43.443Z,43.58
2019-05-26T06:02:18.494Z,42.55
2019-05-26T06:02:54.102Z,42.55
2019-05-26T06:03:29.722Z,43.33
2019-05-26T06:04:05.164Z,44.20
2019-05-26T06:04:40.792Z,44.03
2019-05-26T06:05:16.700Z,41.60
2019-05-26T06:05:51.779Z,44.08
2019-05-26T06:06:27.636Z,40.70
2019-05-26T06:07:04.287Z,43.38
2019-05-26T06:07:39.331Z,41.90
2019-05-26T06:08:14.955Z,43.58
2019-05-26T06:08:50.648Z,42.60
2019-05-26T06:09:26.092Z,42.85
2019-05-26T06:10:01.771Z,42.75
2019-05-26T06:10:37.696Z,43.28
2019-05-26T06:11:16.364Z,43.15
2019-05-26T06:11:53.274Z,41.23
2019-05-26T06:12:29.148Z,42.10
2019-05-26T06:13:04.615Z,41.02
2019-05-26T06:13:40.610Z,40.40
2019-05-26T06:14:16.579Z,40.43
2019-05-26T06:14:51.626Z,39.60
2019-05-26T06:15:27.261Z,40.03
2019-05-26T06:16:02.960Z,39.23
2019-05-26T06:16:38.003Z,40.95
2019-05-26T06:17:13.637Z,39.80
2019-05-26T06:17:49.742Z,39.30
2019-05-26T06:18:25.298Z,40.80
2019-05-26T06:19:00.919Z,37.83
2019-05-26T06:19:37.499Z,39.85
2019-05-26T06:20:12.526Z,37.28
2019-05-26T06:20:48.158Z,39.40
2019-05-26T06:21:24.330Z,40.00
2019-05-26T06:21:59.376Z,38.48
2019-05-26T06:22:35.243Z,38.00
2019-05-26T06:23:10.863Z,38.02
2019-05-26T06:23:45.902Z,37.88
2019-05-26T06:24:21.546Z,37.95
2019-05-26T06:24:57.165Z,37.00
2019-05-26T06:25:32.304Z,36.53
2019-05-26T06:26:07.947Z,37.13
2019-05-26T06:26:43.597Z,36.45
2019-05-26T06:27:19.267Z,36.80
2019-05-26T06:27:55.142Z,36.73
2019-05-26T06:28:30.774Z,35.20
2019-05-26T06:29:05.802Z,36.25
2019-05-26T06:29:57.611Z,34.95
2019-05-26T06:30:19.170Z,35.83
2019-05-26T06:30:54.494Z,36.73
2019-05-26T06:31:30.131Z,35.17
2019-05-26T06:32:06.083Z,35.70
2019-05-26T06:32:41.283Z,33.60
2019-05-26T06:33:16.938Z,34.18
2019-05-26T06:33:52.827Z,33.83
2019-05-26T06:34:27.884Z,34.43
2019-05-26T06:35:03.588Z,34.48
2019-05-26T06:35:39.237Z,34.60
2019-05-26T06:36:14.294Z,34.00
2019-05-26T06:36:49.934Z,33.13
2019-05-26T06:37:25.563Z,34.08
2019-05-26T06:38:00.975Z,33.65
2019-05-26T06:38:36.602Z,32.28
2019-05-26T06:39:12.226Z,31.93
2019-05-26T06:39:47.818Z,32.65
2019-05-26T06:40:23.703Z,33.25
2019-05-26T06:40:59.346Z,33.98
2019-05-26T06:41:34.390Z,33.23
2019-05-26T06:42:13.149Z,31.77
2019-05-26T06:42:48.687Z,32.93
2019-05-26T06:43:23.977Z,31.52
2019-05-26T06:43:59.621Z,31.77
2019-05-26T06:44:52.074Z,31.45
2019-05-26T06:45:11.995Z,32.33
2019-05-26T06:45:47.651Z,31.37
2019-05-26T06:46:23.540Z,31.50
2019-05-26T06:46:59.691Z,30.85
2019-05-26T06:47:35.349Z,31.17
2019-05-26T06:48:11.227Z,31.68
2019-05-26T06:48:46.418Z,30.43
2019-05-26T06:49:22.433Z,30.02
2019-05-26T06:49:58.538Z,29.25
2019-05-26T06:50:33.673Z,29.52
2019-05-26T06:51:09.318Z,29.72
2019-05-26T06:51:44.990Z,29.15
2019-05-26T06:52:20.287Z,30.52
2019-05-26T06:52:55.922Z,29.00
2019-05-26T06:53:31.569Z,28.65
2019-05-26T06:54:07.158Z,29.67
2019-05-26T06:54:42.766Z,28.00
2019-05-26T06:55:18.435Z,28.02
2019-05-26T06:55:53.459Z,28.15
2019-05-26T06:56:29.363Z,28.20
2019-05-26T06:57:05.151Z,27.58
2019-05-26T06:57:40.557Z,27.80
2019-05-26T06:58:16.239Z,27.32
2019-05-26T06:58:51.898Z,27.13
2019-05-26T06:59:26.947Z,26.93
2019-05-26T07:00:02.602Z,26.65
2019-05-26T07:00:38.304Z,27.40
2019-05-26T07:01:13.378Z,26.48
2019-05-26T07:01:49.021Z,27.30
2019-05-26T07:02:24.622Z,25.27
2019-05-26T07:02:59.943Z,26.60
2019-05-26T07:03:35.584Z,26.30
2019-05-26T07:04:11.652Z,26.97
2019-05-26T07:04:46.687Z,25.40
2019-05-26T07:05:22.392Z,26.45
2019-05-26T07:05:58.014Z,25.85
2019-05-26T07:06:33.068Z,25.77
2019-05-26T07:07:08.759Z,26.82
2019-05-26T07:07:44.374Z,25.57
2019-05-26T07:08:19.434Z,25.30
2019-05-26T07:08:55.075Z,25.40
2019-05-26T07:09:30.710Z,25.32
2019-05-26T07:10:05.982Z,24.23
2019-05-26T07:10:41.634Z,25.45
2019-05-26T07:11:17.256Z,24.85
2019-05-26T07:11:59.700Z,25.45
2019-05-26T07:12:29.656Z,24.47
2019-05-26T07:13:05.286Z,25.25
2019-05-26T07:13:40.407Z,24.60
2019-05-26T07:14:16.027Z,24.60
2019-05-26T07:14:51.663Z,24.50
2019-05-26T07:15:26.719Z,24.45
2019-05-26T07:16:02.486Z,22.75
2019-05-26T07:16:38.975Z,24.00
2019-05-26T07:17:14.154Z,24.52
2019-05-26T07:17:49.775Z,24.15
2019-05-26T07:18:25.414Z,23.90
2019-05-26T07:19:00.515Z,23.40
2019-05-26T07:19:36.167Z,23.92
2019-05-26T07:20:11.870Z,24.23
2019-05-26T07:20:46.946Z,23.92
2019-05-26T07:21:22.595Z,23.32
2019-05-26T07:21:58.488Z,24.40
2019-05-26T07:22:33.515Z,23.60
2019-05-26T07:23:09.568Z,23.32
2019-05-26T07:23:45.963Z,23.73
2019-05-26T07:24:21.099Z,23.85
2019-05-26T07:24:56.760Z,24.07
2019-05-26T07:25:32.485Z,23.45
2019-05-26T07:26:07.791Z,23.87
2019-05-26T07:26:44.653Z,23.92
2019-05-26T07:27:20.278Z,24.80
2019-05-26T07:27:55.374Z,24.82
2019-05-26T07:28:31.191Z,24.45
2019-05-26T07:29:06.824Z,23.57
2019-05-26T07:29:42.323Z,24.10
2019-05-26T07:30:17.990Z,23.77
2019-05-26T07:30:53.868Z,24.25
2019-05-26T07:31:28.944Z,24.40
2019-05-26T07:32:04.816Z,24.27
2019-05-26T07:32:40.463Z,23.70
2019-05-26T07:33:15.636Z,23.25
2019-05-26T07:33:51.310Z,24.40
2019-05-26T07:34:26.936Z,23.47
2019-05-26T07:35:02.035Z,22.93
2019-05-26T07:35:37.671Z,24.00
2019-05-26T07:36:13.307Z,24.23
2019-05-26T07:36:48.349Z,23.52
2019-05-26T07:37:23.999Z,23.62
2019-05-26T07:37:59.614Z,23.65
2019-05-26T07:38:34.691Z,23.60
2019-05-26T07:39:10.715Z,23.40
2019-05-26T07:39:46.685Z,24.10
2019-05-26T07:40:22.137Z,23.30
2019-05-26T07:40:57.787Z,24.32
2019-05-26T07:41:33.707Z,24.87
2019-05-26T07:42:11.011Z,24.27
2019-05-26T07:42:46.461Z,23.52
2019-05-26T07:43:22.267Z,22.75
2019-05-26T07:43:57.904Z,23.95
2019-05-26T07:44:33.770Z,23.87
2019-05-26T07:45:11.104Z,22.25